sensor_id;sensor_type;location;lat;lon;timestamp;pressure;altitude;pressure_sealevel;temperature
67515;BMP280;60646;55.802;37.032;2023-04-25T00:01:03;99481.72;;;16.93
67515;BMP280;60646;55.802;37.032;2023-04-25T00:03:31;99466.16;;;16.79
67515;BMP280;60646;55.802;37.032;2023-04-25T00:06:00;99512.03;;;17.07
67515;BMP280;60646;55.802;37.032;2023-04-25T00:08:29;99504.06;;;17.01
67515;BMP280;60646;55.802;37.032;2023-04-25T00:10:56;99512.50;;;16.98
67515;BMP280;60646;55.802;37.032;2023-04-25T00:13:22;99476.22;;;16.78
67515;BMP280;60646;55.802;37.032;2023-04-25T00:15:48;99482.69;;;16.75
67515;BMP280;60646;55.802;37.032;2023-04-25T00:18:14;99490.25;;;16.77
67515;BMP280;60646;55.802;37.032;2023-04-25T00:20:40;99502.47;;;16.77
67515;BMP280;60646;55.802;37.032;2023-04-25T00:23:09;99498.84;;;16.75
67515;BMP280;60646;55.802;37.032;2023-04-25T00:25:35;99487.31;;;16.67
67515;BMP280;60646;55.802;37.032;2023-04-25T00:28:01;99499.94;;;16.72
67515;BMP280;60646;55.802;37.032;2023-04-25T00:30:27;99506.63;;;16.79
67515;BMP280;60646;55.802;37.032;2023-04-25T00:32:53;99494.06;;;16.60
67515;BMP280;60646;55.802;37.032;2023-04-25T00:35:19;99485.22;;;16.52
67515;BMP280;60646;55.802;37.032;2023-04-25T00:37:45;99489.38;;;16.53
67515;BMP280;60646;55.802;37.032;2023-04-25T00:40:11;99464.38;;;16.32
67515;BMP280;60646;55.802;37.032;2023-04-25T00:42:37;99486.81;;;16.48
67515;BMP280;60646;55.802;37.032;2023-04-25T00:45:05;99515.88;;;16.62
67515;BMP280;60646;55.802;37.032;2023-04-25T00:47:32;99486.75;;;16.40
67515;BMP280;60646;55.802;37.032;2023-04-25T00:49:58;99510.72;;;16.51
67515;BMP280;60646;55.802;37.032;2023-04-25T00:52:24;99521.75;;;16.53
67515;BMP280;60646;55.802;37.032;2023-04-25T00:54:50;99519.47;;;16.44
67515;BMP280;60646;55.802;37.032;2023-04-25T00:57:15;99487.34;;;16.26
67515;BMP280;60646;55.802;37.032;2023-04-25T00:59:45;99525.06;;;16.46
67515;BMP280;60646;55.802;37.032;2023-04-25T01:02:12;99524.16;;;16.44
67515;BMP280;60646;55.802;37.032;2023-04-25T01:04:39;99522.31;;;16.39
67515;BMP280;60646;55.802;37.032;2023-04-25T01:07:05;99525.84;;;16.34
67515;BMP280;60646;55.802;37.032;2023-04-25T01:09:30;99498.69;;;16.11
67515;BMP280;60646;55.802;37.032;2023-04-25T01:11:57;99517.09;;;16.20
67515;BMP280;60646;55.802;37.032;2023-04-25T01:14:23;99497.50;;;15.99
67515;BMP280;60646;55.802;37.032;2023-04-25T01:16:49;99506.63;;;15.96
67515;BMP280;60646;55.802;37.032;2023-04-25T01:19:16;99519.44;;;16.03
67515;BMP280;60646;55.802;37.032;2023-04-25T01:21:45;99502.53;;;15.82
67515;BMP280;60646;55.802;37.032;2023-04-25T01:24:12;99503.75;;;15.81
67515;BMP280;60646;55.802;37.032;2023-04-25T01:26:39;99497.88;;;15.69
67515;BMP280;60646;55.802;37.032;2023-04-25T01:29:07;99513.75;;;15.73
67515;BMP280;60646;55.802;37.032;2023-04-25T01:31:34;99506.06;;;15.64
67515;BMP280;60646;55.802;37.032;2023-04-25T01:34:00;99495.13;;;15.49
67515;BMP280;60646;55.802;37.032;2023-04-25T01:36:28;99541.38;;;15.73
67515;BMP280;60646;55.802;37.032;2023-04-25T01:38:54;99507.75;;;15.54
67515;BMP280;60646;55.802;37.032;2023-04-25T01:41:21;99498.66;;;15.43
67515;BMP280;60646;55.802;37.032;2023-04-25T01:43:49;99513.75;;;15.47
67515;BMP280;60646;55.802;37.032;2023-04-25T01:46:16;99523.69;;;15.38
67515;BMP280;60646;55.802;37.032;2023-04-25T01:48:43;99518.31;;;15.38
67515;BMP280;60646;55.802;37.032;2023-04-25T01:51:09;99536.03;;;15.47
67515;BMP280;60646;55.802;37.032;2023-04-25T01:53:38;99484.59;;;15.11
67515;BMP280;60646;55.802;37.032;2023-04-25T01:56:04;99486.88;;;15.07
67515;BMP280;60646;55.802;37.032;2023-04-25T01:58:33;99499.09;;;15.08
67515;BMP280;60646;55.802;37.032;2023-04-25T02:01:20;99533.56;;;15.23
67515;BMP280;60646;55.802;37.032;2023-04-25T02:04:00;99533.56;;;15.23
67515;BMP280;60646;55.802;37.032;2023-04-25T02:06:32;99530.75;;;15.28
67515;BMP280;60646;55.802;37.032;2023-04-25T02:08:58;99501.66;;;15.01
67515;BMP280;60646;55.802;37.032;2023-04-25T02:11:23;99493.88;;;14.97
67515;BMP280;60646;55.802;37.032;2023-04-25T02:14:08;99467.59;;;14.77
67515;BMP280;60646;55.802;37.032;2023-04-25T02:16:42;99503.00;;;14.94
67515;BMP280;60646;55.802;37.032;2023-04-25T02:19:09;99502.59;;;14.90
67515;BMP280;60646;55.802;37.032;2023-04-25T02:21:35;99516.66;;;14.96
67515;BMP280;60646;55.802;37.032;2023-04-25T02:24:02;99497.19;;;14.90
67515;BMP280;60646;55.802;37.032;2023-04-25T02:26:28;99515.63;;;14.99
67515;BMP280;60646;55.802;37.032;2023-04-25T02:28:56;99523.47;;;14.97
67515;BMP280;60646;55.802;37.032;2023-04-25T02:31:22;99503.69;;;14.82
67515;BMP280;60646;55.802;37.032;2023-04-25T02:33:51;99509.69;;;14.88
67515;BMP280;60646;55.802;37.032;2023-04-25T02:36:17;99511.88;;;14.89
67515;BMP280;60646;55.802;37.032;2023-04-25T02:38:42;99503.16;;;14.83
67515;BMP280;60646;55.802;37.032;2023-04-25T02:41:08;99491.38;;;14.73
67515;BMP280;60646;55.802;37.032;2023-04-25T02:43:34;99502.16;;;14.86
67515;BMP280;60646;55.802;37.032;2023-04-25T02:46:00;99504.63;;;14.84
67515;BMP280;60646;55.802;37.032;2023-04-25T02:48:26;99497.19;;;14.77
67515;BMP280;60646;55.802;37.032;2023-04-25T02:50:51;99503.16;;;14.83
67515;BMP280;60646;55.802;37.032;2023-04-25T02:53:17;99483.72;;;14.77
67515;BMP280;60646;55.802;37.032;2023-04-25T02:55:47;99494.25;;;14.75
67515;BMP280;60646;55.802;37.032;2023-04-25T02:58:13;99512.50;;;14.82
67515;BMP280;60646;55.802;37.032;2023-04-25T03:00:46;99510.00;;;14.84
67515;BMP280;60646;55.802;37.032;2023-04-25T03:03:12;99504.84;;;14.73
67515;BMP280;60646;55.802;37.032;2023-04-25T03:05:38;99499.53;;;14.81
67515;BMP280;60646;55.802;37.032;2023-04-25T03:08:04;99494.50;;;14.77
67515;BMP280;60646;55.802;37.032;2023-04-25T03:10:32;99500.28;;;14.81
67515;BMP280;60646;55.802;37.032;2023-04-25T03:13:02;99510.94;;;14.87
67515;BMP280;60646;55.802;37.032;2023-04-25T03:15:27;99517.38;;;14.97
67515;BMP280;60646;55.802;37.032;2023-04-25T03:17:53;99510.34;;;14.94
67515;BMP280;60646;55.802;37.032;2023-04-25T03:20:19;99502.59;;;14.90
67515;BMP280;60646;55.802;37.032;2023-04-25T03:22:46;99504.44;;;14.95
67515;BMP280;60646;55.802;37.032;2023-04-25T03:25:12;99498.03;;;14.98
67515;BMP280;60646;55.802;37.032;2023-04-25T03:27:37;99492.47;;;14.96
67515;BMP280;60646;55.802;37.032;2023-04-25T03:30:04;99517.09;;;15.13
67515;BMP280;60646;55.802;37.032;2023-04-25T03:32:31;99496.41;;;15.08
67515;BMP280;60646;55.802;37.032;2023-04-25T03:34:57;99482.31;;;15.02
67515;BMP280;60646;55.802;37.032;2023-04-25T03:37:25;99497.00;;;15.14
67515;BMP280;60646;55.802;37.032;2023-04-25T03:39:51;99499.69;;;15.27
67515;BMP280;60646;55.802;37.032;2023-04-25T03:42:17;99490.16;;;15.26
67515;BMP280;60646;55.802;37.032;2023-04-25T03:44:44;99485.72;;;15.29
67515;BMP280;60646;55.802;37.032;2023-04-25T03:47:10;99488.72;;;15.38
67515;BMP280;60646;55.802;37.032;2023-04-25T03:49:35;99482.09;;;15.39
67515;BMP280;60646;55.802;37.032;2023-04-25T03:52:25;99511.34;;;15.69
67515;BMP280;60646;55.802;37.032;2023-04-25T03:55:53;99489.97;;;15.51
67515;BMP280;60646;55.802;37.032;2023-04-25T03:58:19;99530.06;;;15.75
67515;BMP280;60646;55.802;37.032;2023-04-25T04:00:45;99510.31;;;15.72
67515;BMP280;60646;55.802;37.032;2023-04-25T04:03:11;99474.78;;;15.61
67515;BMP280;60646;55.802;37.032;2023-04-25T04:05:37;99488.88;;;15.67
67515;BMP280;60646;55.802;37.032;2023-04-25T04:08:06;99488.25;;;15.74
67515;BMP280;60646;55.802;37.032;2023-04-25T04:10:32;99473.13;;;15.71
67515;BMP280;60646;55.802;37.032;2023-04-25T04:12:58;99481.16;;;15.84
67515;BMP280;60646;55.802;37.032;2023-04-25T04:15:24;99504.63;;;15.96
67515;BMP280;60646;55.802;37.032;2023-04-25T04:17:50;99501.81;;;16.02
67515;BMP280;60646;55.802;37.032;2023-04-25T04:20:17;99484.97;;;15.88
67515;BMP280;60646;55.802;37.032;2023-04-25T04:22:43;99489.91;;;15.97
67515;BMP280;60646;55.802;37.032;2023-04-25T04:25:11;99478.75;;;15.93
67515;BMP280;60646;55.802;37.032;2023-04-25T04:27:56;99509.13;;;16.15
67515;BMP280;60646;55.802;37.032;2023-04-25T04:30:48;99517.09;;;16.20
67515;BMP280;60646;55.802;37.032;2023-04-25T04:33:18;99512.66;;;16.23
67515;BMP280;60646;55.802;37.032;2023-04-25T04:35:53;99510.53;;;16.29
67515;BMP280;60646;55.802;37.032;2023-04-25T04:38:19;99485.50;;;16.21
67515;BMP280;60646;55.802;37.032;2023-04-25T04:40:46;99481.72;;;16.24
67515;BMP280;60646;55.802;37.032;2023-04-25T04:43:24;99480.56;;;16.32
67515;BMP280;60646;55.802;37.032;2023-04-25T04:46:09;99484.25;;;16.42
67515;BMP280;60646;55.802;37.032;2023-04-25T04:48:45;99483.56;;;16.49
67515;BMP280;60646;55.802;37.032;2023-04-25T04:51:29;99471.75;;;16.52
67515;BMP280;60646;55.802;37.032;2023-04-25T04:57:12;99476.41;;;16.80
67515;BMP280;60646;55.802;37.032;2023-04-25T05:00:11;99460.09;;;16.86
67515;BMP280;60646;55.802;37.032;2023-04-25T05:03:01;99441.94;;;16.86
67515;BMP280;60646;55.802;37.032;2023-04-25T05:05:36;99451.03;;;17.04
67515;BMP280;60646;55.802;37.032;2023-04-25T05:08:24;99451.25;;;17.21
67515;BMP280;60646;55.802;37.032;2023-04-25T05:11:10;99474.06;;;17.48
67515;BMP280;60646;55.802;37.032;2023-04-25T05:13:48;99450.63;;;17.51
67515;BMP280;60646;55.802;37.032;2023-04-25T05:16:49;99448.50;;;17.64
67515;BMP280;60646;55.802;37.032;2023-04-25T05:19:38;99444.59;;;17.80
67515;BMP280;60646;55.802;37.032;2023-04-25T05:22:28;99457.59;;;18.12
67515;BMP280;60646;55.802;37.032;2023-04-25T05:25:33;99439.94;;;18.19
67515;BMP280;60646;55.802;37.032;2023-04-25T05:28:05;99445.16;;;18.47
67515;BMP280;60646;55.802;37.032;2023-04-25T05:30:40;99439.19;;;18.56
67515;BMP280;60646;55.802;37.032;2023-04-25T05:33:14;99436.25;;;18.69
67515;BMP280;60646;55.802;37.032;2023-04-25T05:35:58;99455.47;;;18.96
67515;BMP280;60646;55.802;37.032;2023-04-25T05:38:25;99455.97;;;19.09
67515;BMP280;60646;55.802;37.032;2023-04-25T05:41:14;99437.53;;;19.15
67515;BMP280;60646;55.802;37.032;2023-04-25T05:44:00;99428.31;;;19.18
67515;BMP280;60646;55.802;37.032;2023-04-25T05:46:49;99439.22;;;19.35
67515;BMP280;60646;55.802;37.032;2023-04-25T05:49:23;99448.88;;;19.53
67515;BMP280;60646;55.802;37.032;2023-04-25T05:52:02;99449.59;;;19.54
67515;BMP280;60646;55.802;37.032;2023-04-25T05:54:57;99426.88;;;19.49
67515;BMP280;60646;55.802;37.032;2023-04-25T05:57:42;99435.28;;;19.61
67515;BMP280;60646;55.802;37.032;2023-04-25T06:00:13;99428.38;;;19.68
67515;BMP280;60646;55.802;37.032;2023-04-25T06:03:00;99457.66;;;19.94
67515;BMP280;60646;55.802;37.032;2023-04-25T06:05:26;99431.69;;;19.83
67515;BMP280;60646;55.802;37.032;2023-04-25T06:07:52;99425.88;;;19.87
67515;BMP280;60646;55.802;37.032;2023-04-25T06:10:20;99413.16;;;19.97
67515;BMP280;60646;55.802;37.032;2023-04-25T06:13:05;99424.97;;;20.09
67515;BMP280;60646;55.802;37.032;2023-04-25T06:15:33;99421.97;;;20.22
67515;BMP280;60646;55.802;37.032;2023-04-25T06:18:00;99404.25;;;20.21
67515;BMP280;60646;55.802;37.032;2023-04-25T06:20:26;99410.97;;;20.37
67515;BMP280;60646;55.802;37.032;2023-04-25T06:22:55;99420.53;;;20.55
67515;BMP280;60646;55.802;37.032;2023-04-25T06:25:29;99420.09;;;20.66
67515;BMP280;60646;55.802;37.032;2023-04-25T06:28:14;99396.72;;;20.63
67515;BMP280;60646;55.802;37.032;2023-04-25T06:30:43;99408.09;;;20.69
67515;BMP280;60646;55.802;37.032;2023-04-25T06:33:13;99410.16;;;20.78
67515;BMP280;60646;55.802;37.032;2023-04-25T06:35:40;99426.22;;;20.93
67515;BMP280;60646;55.802;37.032;2023-04-25T06:38:09;99401.75;;;20.84
67515;BMP280;60646;55.802;37.032;2023-04-25T06:40:37;99420.00;;;21.00
67515;BMP280;60646;55.802;37.032;2023-04-25T06:43:03;99412.00;;;21.02
67515;BMP280;60646;55.802;37.032;2023-04-25T06:45:41;99389.88;;;21.06
67515;BMP280;60646;55.802;37.032;2023-04-25T06:48:08;99411.84;;;21.27
67515;BMP280;60646;55.802;37.032;2023-04-25T06:50:34;99385.94;;;21.26
67515;BMP280;60646;55.802;37.032;2023-04-25T06:53:01;99398.88;;;21.35
67515;BMP280;60646;55.802;37.032;2023-04-25T06:55:28;99415.97;;;21.55
67515;BMP280;60646;55.802;37.032;2023-04-25T06:58:17;99417.84;;;21.71
67515;BMP280;60646;55.802;37.032;2023-04-25T07:01:05;99408.97;;;21.71
67515;BMP280;60646;55.802;37.032;2023-04-25T07:03:32;99412.59;;;21.83
67515;BMP280;60646;55.802;37.032;2023-04-25T07:06:03;99408.91;;;21.88
67515;BMP280;60646;55.802;37.032;2023-04-25T07:08:29;99432.97;;;22.01
67515;BMP280;60646;55.802;37.032;2023-04-25T07:10:56;99399.59;;;21.91
67515;BMP280;60646;55.802;37.032;2023-04-25T07:13:22;99404.34;;;22.00
67515;BMP280;60646;55.802;37.032;2023-04-25T07:15:48;99399.72;;;22.03
67515;BMP280;60646;55.802;37.032;2023-04-25T07:18:16;99396.19;;;22.10
67515;BMP280;60646;55.802;37.032;2023-04-25T07:20:42;99400.63;;;22.15
67515;BMP280;60646;55.802;37.032;2023-04-25T07:23:08;99397.47;;;22.18
67515;BMP280;60646;55.802;37.032;2023-04-25T07:25:34;99402.22;;;22.27
67515;BMP280;60646;55.802;37.032;2023-04-25T07:28:01;99408.34;;;22.37
67515;BMP280;60646;55.802;37.032;2023-04-25T07:30:27;99407.19;;;22.40
67515;BMP280;60646;55.802;37.032;2023-04-25T07:32:54;99388.72;;;22.39
67515;BMP280;60646;55.802;37.032;2023-04-25T07:35:21;99414.06;;;22.60
67515;BMP280;60646;55.802;37.032;2023-04-25T07:37:47;99399.88;;;22.52
67515;BMP280;60646;55.802;37.032;2023-04-25T07:40:19;99398.75;;;22.55
67515;BMP280;60646;55.802;37.032;2023-04-25T07:42:49;99408.31;;;22.75
67515;BMP280;60646;55.802;37.032;2023-04-25T07:45:20;99379.25;;;22.59
67515;BMP280;60646;55.802;37.032;2023-04-25T07:47:46;99393.13;;;22.72
67515;BMP280;60646;55.802;37.032;2023-04-25T07:50:12;99385.38;;;22.79
67515;BMP280;60646;55.802;37.032;2023-04-25T07:52:38;99391.09;;;22.83
67515;BMP280;60646;55.802;37.032;2023-04-25T07:55:26;99388.38;;;22.83
67515;BMP280;60646;55.802;37.032;2023-04-25T07:58:01;99386.91;;;22.91
67515;BMP280;60646;55.802;37.032;2023-04-25T08:00:29;99387.19;;;22.95
67515;BMP280;60646;55.802;37.032;2023-04-25T08:03:14;99387.75;;;23.03
67515;BMP280;60646;55.802;37.032;2023-04-25T08:05:41;99380.28;;;23.04
67515;BMP280;60646;55.802;37.032;2023-04-25T08:08:07;99397.69;;;23.20
67515;BMP280;60646;55.802;37.032;2023-04-25T08:10:33;99391.09;;;23.23
67515;BMP280;60646;55.802;37.032;2023-04-25T08:12:59;99395.63;;;23.30
67515;BMP280;60646;55.802;37.032;2023-04-25T08:15:26;99384.72;;;23.30
67515;BMP280;60646;55.802;37.032;2023-04-25T08:17:52;99372.16;;;23.25
67515;BMP280;60646;55.802;37.032;2023-04-25T08:20:18;99382.28;;;23.34
67515;BMP280;60646;55.802;37.032;2023-04-25T08:22:44;99369.53;;;23.36
67515;BMP280;60646;55.802;37.032;2023-04-25T08:25:19;99392.97;;;23.51
67515;BMP280;60646;55.802;37.032;2023-04-25T08:27:46;99374.97;;;23.36
67515;BMP280;60646;55.802;37.032;2023-04-25T08:30:12;99393.34;;;23.57
67515;BMP280;60646;55.802;37.032;2023-04-25T08:32:39;99380.75;;;23.52
67515;BMP280;60646;55.802;37.032;2023-04-25T08:35:20;99389.19;;;23.56
67515;BMP280;60646;55.802;37.032;2023-04-25T08:37:46;99369.47;;;23.46
67515;BMP280;60646;55.802;37.032;2023-04-25T08:40:14;99359.03;;;23.33
67515;BMP280;60646;55.802;37.032;2023-04-25T08:42:55;99364.78;;;23.37
67515;BMP280;60646;55.802;37.032;2023-04-25T08:45:22;99390.09;;;23.49
67515;BMP280;60646;55.802;37.032;2023-04-25T08:47:51;99367.34;;;23.35
67515;BMP280;60646;55.802;37.032;2023-04-25T08:50:18;99377.09;;;23.38
67515;BMP280;60646;55.802;37.032;2023-04-25T08:52:46;99378.72;;;23.31
67515;BMP280;60646;55.802;37.032;2023-04-25T08:55:14;99371.09;;;23.30
67515;BMP280;60646;55.802;37.032;2023-04-25T08:57:42;99367.81;;;23.31
67515;BMP280;60646;55.802;37.032;2023-04-25T09:00:12;99384.25;;;23.43
67515;BMP280;60646;55.802;37.032;2023-04-25T09:02:42;99374.53;;;23.30
67515;BMP280;60646;55.802;37.032;2023-04-25T09:05:09;99376.81;;;23.34
67515;BMP280;60646;55.802;37.032;2023-04-25T09:07:36;99364.09;;;23.27
67515;BMP280;60646;55.802;37.032;2023-04-25T09:10:03;99372.81;;;23.35
67515;BMP280;60646;55.802;37.032;2023-04-25T09:12:35;99380.25;;;23.44
67515;BMP280;60646;55.802;37.032;2023-04-25T09:15:07;99380.94;;;23.44
67515;BMP280;60646;55.802;37.032;2023-04-25T09:17:56;99388.25;;;23.42
67515;BMP280;60646;55.802;37.032;2023-04-25T09:20:23;99366.97;;;23.29
67515;BMP280;60646;55.802;37.032;2023-04-25T09:23:01;99359.97;;;23.26
67515;BMP280;60646;55.802;37.032;2023-04-25T09:25:34;99373.78;;;23.39
67515;BMP280;60646;55.802;37.032;2023-04-25T09:28:04;99362.81;;;23.28
67515;BMP280;60646;55.802;37.032;2023-04-25T09:30:35;99366.91;;;23.38
67515;BMP280;60646;55.802;37.032;2023-04-25T09:33:20;99329.53;;;23.20
67515;BMP280;60646;55.802;37.032;2023-04-25T09:35:49;99330.09;;;23.28
67515;BMP280;60646;55.802;37.032;2023-04-25T09:38:41;99351.16;;;23.58
67515;BMP280;60646;55.802;37.032;2023-04-25T09:41:22;99343.53;;;23.56
67515;BMP280;60646;55.802;37.032;2023-04-25T09:43:49;99348.69;;;23.62
67515;BMP280;60646;55.802;37.032;2023-04-25T09:46:16;99328.34;;;23.53
67515;BMP280;60646;55.802;37.032;2023-04-25T09:48:49;99348.16;;;23.75
67515;BMP280;60646;55.802;37.032;2023-04-25T09:51:25;99348.06;;;23.85
67515;BMP280;60646;55.802;37.032;2023-04-25T09:53:51;99327.63;;;23.74
67515;BMP280;60646;55.802;37.032;2023-04-25T09:56:27;99323.25;;;23.81
67515;BMP280;60646;55.802;37.032;2023-04-25T09:58:55;99315.19;;;23.83
67515;BMP280;60646;55.802;37.032;2023-04-25T10:01:23;99320.72;;;23.94
67515;BMP280;60646;55.802;37.032;2023-04-25T10:04:05;99318.81;;;23.97
67515;BMP280;60646;55.802;37.032;2023-04-25T10:06:55;99303.16;;;23.97
67515;BMP280;60646;55.802;37.032;2023-04-25T10:09:25;99309.38;;;24.09
67515;BMP280;60646;55.802;37.032;2023-04-25T10:11:51;99293.34;;;24.04
67515;BMP280;60646;55.802;37.032;2023-04-25T10:14:18;99314.88;;;24.21
67515;BMP280;60646;55.802;37.032;2023-04-25T10:16:45;99305.72;;;24.16
67515;BMP280;60646;55.802;37.032;2023-04-25T10:19:11;99317.25;;;24.38
67515;BMP280;60646;55.802;37.032;2023-04-25T10:21:46;99301.03;;;24.40
67515;BMP280;60646;55.802;37.032;2023-04-25T10:24:14;99321.69;;;24.55
67515;BMP280;60646;55.802;37.032;2023-04-25T10:26:41;99289.38;;;24.39
67515;BMP280;60646;55.802;37.032;2023-04-25T10:29:10;99317.53;;;24.65
67515;BMP280;60646;55.802;37.032;2023-04-25T10:31:45;99318.72;;;24.74
67515;BMP280;60646;55.802;37.032;2023-04-25T10:34:12;99287.13;;;24.59
67515;BMP280;60646;55.802;37.032;2023-04-25T10:36:38;99278.34;;;24.61
67515;BMP280;60646;55.802;37.032;2023-04-25T10:39:05;99311.38;;;24.88
67515;BMP280;60646;55.802;37.032;2023-04-25T10:44:18;99277.88;;;24.76
67515;BMP280;60646;55.802;37.032;2023-04-25T10:46:44;99300.88;;;24.96
67515;BMP280;60646;55.802;37.032;2023-04-25T10:49:33;99289.28;;;24.95
67515;BMP280;60646;55.802;37.032;2023-04-25T10:52:18;99292.94;;;25.00
67515;BMP280;60646;55.802;37.032;2023-04-25T10:54:55;99280.22;;;24.93
67515;BMP280;60646;55.802;37.032;2023-04-25T10:57:41;99273.34;;;24.92
67515;BMP280;60646;55.802;37.032;2023-04-25T11:00:13;99290.91;;;25.00
67515;BMP280;60646;55.802;37.032;2023-04-25T11:02:46;99276.53;;;25.00
67515;BMP280;60646;55.802;37.032;2023-04-25T11:05:39;99280.91;;;25.05
67515;BMP280;60646;55.802;37.032;2023-04-25T11:08:11;99257.41;;;24.88
67515;BMP280;60646;55.802;37.032;2023-04-25T11:10:40;99274.50;;;25.00
67515;BMP280;60646;55.802;37.032;2023-04-25T11:13:06;99254.22;;;24.92
67515;BMP280;60646;55.802;37.032;2023-04-25T11:15:32;99267.13;;;25.03
67515;BMP280;60646;55.802;37.032;2023-04-25T11:17:58;99257.06;;;24.94
67515;BMP280;60646;55.802;37.032;2023-04-25T11:20:25;99256.69;;;24.99
67515;BMP280;60646;55.802;37.032;2023-04-25T11:22:53;99241.59;;;24.87
67515;BMP280;60646;55.802;37.032;2023-04-25T11:25:22;99240.19;;;24.86
67515;BMP280;60646;55.802;37.032;2023-04-25T11:27:53;99258.09;;;25.00
67515;BMP280;60646;55.802;37.032;2023-04-25T11:30:19;99256.00;;;24.99
67515;BMP280;60646;55.802;37.032;2023-04-25T11:32:46;99247.06;;;24.98
67515;BMP280;60646;55.802;37.032;2023-04-25T11:35:12;99236.97;;;24.89
67515;BMP280;60646;55.802;37.032;2023-04-25T11:37:39;99241.94;;;24.93
67515;BMP280;60646;55.802;37.032;2023-04-25T11:40:06;99222.25;;;24.83
67515;BMP280;60646;55.802;37.032;2023-04-25T11:42:33;99208.03;;;24.73
67515;BMP280;60646;55.802;37.032;2023-04-25T11:44:59;99211.78;;;24.79
67515;BMP280;60646;55.802;37.032;2023-04-25T11:47:33;99223.91;;;24.88
67515;BMP280;60646;55.802;37.032;2023-04-25T11:50:00;99213.59;;;24.86
67515;BMP280;60646;55.802;37.032;2023-04-25T11:52:56;99216.03;;;25.05
67515;BMP280;60646;55.802;37.032;2023-04-25T11:55:21;99208.44;;;24.92
67515;BMP280;60646;55.802;37.032;2023-04-25T11:57:49;99187.56;;;24.85
67515;BMP280;60646;55.802;37.032;2023-04-25T12:00:20;99213.66;;;25.00
67515;BMP280;60646;55.802;37.032;2023-04-25T12:02:51;99203.69;;;24.93
67515;BMP280;60646;55.802;37.032;2023-04-25T12:05:17;99195.41;;;24.91
67515;BMP280;60646;55.802;37.032;2023-04-25T12:07:42;99179.22;;;24.83
67515;BMP280;60646;55.802;37.032;2023-04-25T12:10:13;99204.47;;;25.07
67515;BMP280;60646;55.802;37.032;2023-04-25T12:12:44;99192.97;;;25.08
67515;BMP280;60646;55.802;37.032;2023-04-25T12:15:18;99181.19;;;25.06
67515;BMP280;60646;55.802;37.032;2023-04-25T12:17:53;99184.84;;;25.10
67515;BMP280;60646;55.802;37.032;2023-04-25T12:20:23;99192.56;;;25.14
67515;BMP280;60646;55.802;37.032;2023-04-25T12:22:51;99189.94;;;25.16
67515;BMP280;60646;55.802;37.032;2023-04-25T12:25:49;99179.94;;;25.20
67515;BMP280;60646;55.802;37.032;2023-04-25T12:28:23;99149.69;;;25.05
67515;BMP280;60646;55.802;37.032;2023-04-25T12:31:00;99171.63;;;25.18
67515;BMP280;60646;55.802;37.032;2023-04-25T12:33:36;99161.53;;;25.21
67515;BMP280;60646;55.802;37.032;2023-04-25T12:36:04;99140.09;;;25.04
67515;BMP280;60646;55.802;37.032;2023-04-25T12:38:39;99141.03;;;25.08
67515;BMP280;60646;55.802;37.032;2023-04-25T12:41:06;99160.09;;;25.20
67515;BMP280;60646;55.802;37.032;2023-04-25T12:43:32;99151.88;;;25.20
67515;BMP280;60646;55.802;37.032;2023-04-25T12:45:58;99118.44;;;25.08
67515;BMP280;60646;55.802;37.032;2023-04-25T12:48:24;99114.28;;;25.07
67515;BMP280;60646;55.802;37.032;2023-04-25T12:50:51;99137.00;;;25.23
67515;BMP280;60646;55.802;37.032;2023-04-25T12:53:18;99128.13;;;25.22
67515;BMP280;60646;55.802;37.032;2023-04-25T12:55:45;99103.78;;;25.15
67515;BMP280;60646;55.802;37.032;2023-04-25T12:58:18;99122.47;;;25.32
67515;BMP280;60646;55.802;37.032;2023-04-25T13:00:45;99115.59;;;25.31
67515;BMP280;60646;55.802;37.032;2023-04-25T13:03:11;99097.34;;;25.22
67515;BMP280;60646;55.802;37.032;2023-04-25T13:05:38;99093.50;;;25.27
67515;BMP280;60646;55.802;37.032;2023-04-25T13:08:04;99114.81;;;25.42
67515;BMP280;60646;55.802;37.032;2023-04-25T13:10:31;99103.97;;;25.44
67515;BMP280;60646;55.802;37.032;2023-04-25T13:12:59;99076.78;;;25.34
67515;BMP280;60646;55.802;37.032;2023-04-25T13:15:24;99084.09;;;25.44
67515;BMP280;60646;55.802;37.032;2023-04-25T13:18:11;99097.81;;;25.57
67515;BMP280;60646;55.802;37.032;2023-04-25T13:20:37;99096.19;;;25.52
67515;BMP280;60646;55.802;37.032;2023-04-25T13:23:03;99083.59;;;25.47
67515;BMP280;60646;55.802;37.032;2023-04-25T13:25:29;99072.25;;;25.39
67515;BMP280;60646;55.802;37.032;2023-04-25T13:27:55;99086.53;;;25.51
67515;BMP280;60646;55.802;37.032;2023-04-25T13:30:21;99085.25;;;25.52
67515;BMP280;60646;55.802;37.032;2023-04-25T13:32:47;99070.09;;;25.37
67515;BMP280;60646;55.802;37.032;2023-04-25T13:35:13;99073.66;;;25.40
67515;BMP280;60646;55.802;37.032;2023-04-25T13:37:39;99085.03;;;25.48
67515;BMP280;60646;55.802;37.032;2023-04-25T13:40:08;99069.38;;;25.37
67515;BMP280;60646;55.802;37.032;2023-04-25T13:42:36;99054.16;;;25.20
67515;BMP280;60646;55.802;37.032;2023-04-25T13:45:02;99069.19;;;25.33
67515;BMP280;60646;55.802;37.032;2023-04-25T13:47:34;99077.19;;;25.29
67515;BMP280;60646;55.802;37.032;2023-04-25T13:50:00;99052.69;;;25.06
67515;BMP280;60646;55.802;37.032;2023-04-25T13:52:31;99044.66;;;24.96
67515;BMP280;60646;55.802;37.032;2023-04-25T13:54:58;99057.03;;;24.97
67515;BMP280;60646;55.802;37.032;2023-04-25T13:57:42;99046.69;;;24.96
67515;BMP280;60646;55.802;37.032;2023-04-25T14:00:08;99059.59;;;25.07
67515;BMP280;60646;55.802;37.032;2023-04-25T14:02:35;99055.56;;;25.08
67515;BMP280;60646;55.802;37.032;2023-04-25T14:05:02;99043.94;;;24.96
67515;BMP280;60646;55.802;37.032;2023-04-25T14:07:31;99045.94;;;25.07
67515;BMP280;60646;55.802;37.032;2023-04-25T14:09:57;99054.13;;;25.07
67515;BMP280;60646;55.802;37.032;2023-04-25T14:12:24;99041.56;;;25.02
67515;BMP280;60646;55.802;37.032;2023-04-25T14:14:53;99024.63;;;24.92
67515;BMP280;60646;55.802;37.032;2023-04-25T14:17:38;99032.25;;;25.07
67515;BMP280;60646;55.802;37.032;2023-04-25T14:20:04;99029.84;;;25.13
67515;BMP280;60646;55.802;37.032;2023-04-25T14:22:31;99036.84;;;25.16